• Join FlightAware (Why Join?)
  • Login
  • US Flag 
06:21PM EST


 

Airport Tracker/Info


-or-


 

Live Flight TrackerFlight Track Log ✈ SKW5631 ✈ 25-Apr-2013 ✈ KSFO - KPSP

Flight Track Log - Related Links

Times and Time Zones

All times are in EDT time to prevent confusion due to time zone crossing. See the SKW5631 flight status page for this flight to view local times or setup timezone preferences in your user account.

Time Position Orientation Groundspeed Altitude Reporting Facility
EDT Latitude Longitude Course Direction KTS MPH feet Rate Location/Type
01:52PM 37.6667 -122.3667 293° West 178 205 1,800  Level Northern Cal TRACON
01:53PM 37.6833 -122.4167 293° West 246 283 3,500 2,280 Climbing Northern Cal TRACON
01:54PM 37.6167 -122.4500 202° Southwest 280 322 6,400 2,820 Climbing Northern Cal TRACON
01:55PM 37.5333 -122.4500 180° South 287 330 9,300 2,340 Climbing Northern Cal TRACON
01:56PM 37.4489 -122.4253 167° South 313 360 11,300 1,980 Climbing Oakland Center
01:57PM 37.3836 -122.3372 133° Southeast 348 400 13,500 2,100 Climbing Oakland Center
01:58PM 37.3236 -122.2369 127° Southeast 358 412 15,700 2,040 Climbing Oakland Center
01:59PM 37.2606 -122.1347 128° Southeast 369 425 17,700 1,860 Climbing Oakland Center
02:00PM 37.1972 -122.0286 127° Southeast 379 436 19,600 1,560 Climbing Oakland Center
02:01PM 37.1308 -121.9217 128° Southeast 390 449 21,000 1,500 Climbing Oakland Center
02:02PM 37.0633 -121.8097 127° Southeast 403 464 22,700 1,680 Climbing Oakland Center
02:03PM 36.9778 -121.6761 129° Southeast 409 471 24,500 1,500 Climbing Oakland Center
02:04PM 36.9072 -121.5608 127° Southeast 417 480 25,800 1,020 Climbing Oakland Center
02:05PM 36.8347 -121.4406 127° Southeast 434 499 26,700 1,020 Climbing Oakland Center
02:06PM 36.7514 -121.3111 129° Southeast 441 507 27,900 1,200 Climbing Oakland Center
02:07PM 36.6753 -121.1883 128° Southeast 445 512 29,300 1,260 Climbing Oakland Center
02:08PM 36.5997 -121.0672 128° Southeast 443 510 30,600 780 Climbing Oakland Center
02:09PM 36.5233 -120.9442 128° Southeast 447 514 31,000 180 Climbing Oakland Center
02:10PM 36.4419 -120.8167 128° Southeast 469 540 31,000  Level Oakland Center
02:11PM 36.3603 -120.6844 127° Southeast 480 552 31,000  Level Oakland Center
02:12PM 36.2753 -120.5519 128° Southeast 488 562 31,000  Level Oakland Center
02:13PM 36.1725 -120.3914 128° Southeast 493 567 31,000  Level Oakland Center
02:14PM 36.0897 -120.2614 128° Southeast 482 555 31,000  Level Oakland Center
02:15PM 36.0078 -120.1347 129° Southeast 471 542 31,000  Level Oakland Center
02:16PM 35.9258 -120.0092 129° Southeast 467 537 31,000  Level Oakland Center
02:18PM 35.8439 -119.8833 129° Southeast 468 539 31,000  Level Oakland Center
02:19PM 35.7642 -119.7606 129° Southeast 458 527 31,000  Level Oakland Center
02:20PM 35.6811 -119.6339 129° Southeast 469 540 31,000  Level Oakland Center
02:21PM 35.5972 -119.5075 129° Southeast 472 543 31,000  Level Oakland Center
02:22PM 35.5158 -119.3806 128° Southeast 473 544 31,000  Level Oakland Center
02:23PM 35.4325 -119.2542 129° Southeast 475 547 31,000 -240 Level Los Angeles Center
02:24PM 35.3489 -119.1289 129° Southeast 474 545 30,600 -720 Descending Los Angeles Center
02:25PM 35.2658 -119.0022 129° Southeast 476 548 29,600 -780 Descending Los Angeles Center
02:26PM 35.1797 -118.8736 129° Southeast 486 559 29,000 -300 Descending Los Angeles Center
02:27PM 35.0775 -118.7214 129° Southeast 483 556 29,000  Level Los Angeles Center
02:28PM 34.9928 -118.5950 129° Southeast 482 555 29,000 -120 Level Los Angeles Center
02:29PM 34.9019 -118.4628 130° Southeast 486 559 28,800 -660 Descending Los Angeles Center
02:30PM 34.8164 -118.3375 130° Southeast 486 559 27,700 -1,260 Descending Los Angeles Center
02:31PM 34.7325 -118.2136 129° Southeast 479 551 26,200 -2,160 Descending Los Angeles Center
02:32PM 34.6456 -118.0892 130° Southeast 488 562 23,300 -2,760 Descending Los Angeles Center
02:33PM 34.5803 -117.9539 120° Southeast 466 536 20,500 -1,800 Descending Los Angeles Center
02:34PM 34.5103 -117.8033 119° Southeast 432 497 19,600 -960 Descending Los Angeles Center
02:35PM 34.4533 -117.6786 119° Southeast 427 491 18,600 -960 Descending Los Angeles Center
02:36PM 34.3956 -117.5528 119° Southeast 431 496 17,700 -780 Descending Los Angeles Center
02:37PM 34.3319 -117.4117 119° Southeast 419 482 17,100 -300 Descending Los Angeles Center
02:38PM 34.2753 -117.2900 119° Southeast 412 474 17,100 -480 Level Los Angeles Center
02:39PM 34.2161 -117.1667 120° Southeast 407 468 16,200 -1,020 Descending Los Angeles Center
02:40PM 34.1628 -117.0519 119° Southeast 395 455 15,000 -1,020 Descending Los Angeles Center
02:41PM 34.1058 -116.9261 119° Southeast 383 441 14,100 -720 Descending Los Angeles Center
02:41PM 34.1000 -116.9000 105° East 365 420 14,100  Level Southern California TRACON
02:42PM 34.0569 -116.8247 125° Southeast 354 407 14,100 -720 Level Los Angeles Center
02:43PM 34.0117 -116.7264 119° Southeast 336 387 12,900 -1,500 Descending Los Angeles Center
02:44PM 33.9672 -116.6331 120° Southeast 321 369 11,000 -1,620 Descending Los Angeles Center
02:45PM 33.9308 -116.5550 119° Southeast 283 326 9,600 -1,560 Descending Los Angeles Center
02:46PM 33.8942 -116.4764 119° Southeast 261 300 7,800 -2,160 Descending Los Angeles Center
02:49PM 33.8000 -116.3833 141° Southeast 199 229 2,800 -1,800 Descending Southern California TRACON
02:50PM 33.7833 -116.4333 248° West 156 180 2,200 -840 Descending Southern California TRACON
02:50PM 33.7833 -116.4667 270° West 142 163 1,300 -780 Descending Southern California TRACON
02:52PM 33.8167 -116.5000 320° Northwest 131 151 700 -600 Descending Southern California TRACON
02:54PM 33.8297 -116.5067 289° West  Level Estimated